createdAt,value
2019-05-16T00:01:53.423Z,8.80
2019-05-16T00:04:24.191Z,8.80
2019-05-16T00:06:54.988Z,8.80
2019-05-16T00:09:25.859Z,8.80
2019-05-16T00:11:58.106Z,8.80
2019-05-16T00:14:29.094Z,8.80
2019-05-16T00:16:59.963Z,8.80
2019-05-16T00:19:30.770Z,8.90
2019-05-16T00:22:01.613Z,8.70
2019-05-16T00:24:32.509Z,8.70
2019-05-16T00:27:03.364Z,8.80
2019-05-16T00:29:34.278Z,8.70
2019-05-16T00:32:04.970Z,8.70
2019-05-16T00:34:35.750Z,8.70
2019-05-16T00:37:08.495Z,8.70
2019-05-16T00:39:39.155Z,8.70
2019-05-16T00:42:09.994Z,8.70
2019-05-16T00:44:40.744Z,8.60
2019-05-16T00:47:13.043Z,8.40
2019-05-16T00:49:43.995Z,8.40
2019-05-16T00:52:14.676Z,8.40
2019-05-16T00:54:45.534Z,8.30
2019-05-16T00:57:18.834Z,8.20
2019-05-16T00:59:50.311Z,8.10
2019-05-16T01:02:22.182Z,8.10
2019-05-16T01:04:53.096Z,8.20
2019-05-16T01:07:23.861Z,8.10
2019-05-16T01:09:54.640Z,8.10
2019-05-16T01:12:28.408Z,8.10
2019-05-16T01:14:59.042Z,8.10
2019-05-16T01:17:29.900Z,8.00
2019-05-16T01:20:00.547Z,8.10
2019-05-16T01:22:31.342Z,8.00
2019-05-16T01:25:02.150Z,8.10
2019-05-16T01:27:32.878Z,8.00
2019-05-16T01:30:04.774Z,8.00
2019-05-16T01:32:38.519Z,8.00
2019-05-16T01:35:08.395Z,7.90
2019-05-16T01:37:39.302Z,7.90
2019-05-16T01:40:10.164Z,7.80
2019-05-16T01:42:42.045Z,7.80
2019-05-16T01:45:13.239Z,7.70
2019-05-16T01:47:44.101Z,7.70
2019-05-16T01:50:15.060Z,7.70
2019-05-16T01:52:48.658Z,7.60
2019-05-16T01:55:19.338Z,7.60
2019-05-16T01:57:50.079Z,7.50
2019-05-16T02:00:24.596Z,7.50
2019-05-16T02:02:53.310Z,7.50
2019-05-16T02:05:24.083Z,7.50
2019-05-16T02:07:54.827Z,7.40
2019-05-16T02:10:25.786Z,7.40
2019-05-16T02:12:58.168Z,7.30
2019-05-16T02:15:29.158Z,7.50
2019-05-16T02:18:00.132Z,7.40
2019-05-16T02:20:31.004Z,7.40
2019-05-16T02:23:03.169Z,7.30
2019-05-16T02:25:34.110Z,7.30
2019-05-16T02:28:04.914Z,7.20
2019-05-16T02:30:35.782Z,7.20
2019-05-16T02:33:06.693Z,7.10
2019-05-16T02:35:40.304Z,7.20
2019-05-16T02:38:11.476Z,7.20
2019-05-16T02:40:42.499Z,7.10
2019-05-16T02:43:13.543Z,7.20
2019-05-16T02:45:44.578Z,7.30
2019-05-16T02:48:15.451Z,7.20
2019-05-16T02:50:46.349Z,7.30
2019-05-16T02:53:17.186Z,7.20
2019-05-16T02:55:48.012Z,7.20
2019-05-16T02:58:22.840Z,7.20
2019-05-16T03:00:51.769Z,7.30
2019-05-16T03:03:25.354Z,7.30
2019-05-16T03:05:56.800Z,7.30
2019-05-16T03:08:27.759Z,7.30
2019-05-16T03:11:01.103Z,7.40
2019-05-16T03:13:35.706Z,7.30
2019-05-16T03:16:11.760Z,7.30
2019-05-16T03:18:42.718Z,7.30
2019-05-16T03:21:13.782Z,7.30
2019-05-16T03:23:44.669Z,7.20
2019-05-16T03:26:15.484Z,7.20
2019-05-16T03:28:46.305Z,7.20
2019-05-16T03:31:17.059Z,7.20
2019-05-16T03:33:52.218Z,7.20
2019-05-16T03:36:24.867Z,7.10
2019-05-16T03:38:52.564Z,7.00
2019-05-16T03:41:23.255Z,7.00
2019-05-16T03:43:54.087Z,7.00
2019-05-16T03:46:24.768Z,7.00
2019-05-16T03:48:55.938Z,7.10
2019-05-16T03:51:26.828Z,6.90
2019-05-16T03:53:58.632Z,7.00
2019-05-16T03:56:30.705Z,6.90
2019-05-16T03:59:01.778Z,6.90
2019-05-16T04:01:32.745Z,7.00
2019-05-16T04:04:04.816Z,7.00
2019-05-16T04:06:36.366Z,7.00
2019-05-16T04:09:11.826Z,6.90
2019-05-16T04:11:42.520Z,7.00
2019-05-16T04:14:14.408Z,7.00
2019-05-16T04:16:45.172Z,7.00
2019-05-16T04:19:15.916Z,7.00
2019-05-16T04:21:46.740Z,7.10
2019-05-16T04:24:17.440Z,7.10
2019-05-16T04:26:51.360Z,7.20
2019-05-16T04:29:20.960Z,7.10
2019-05-16T04:31:51.814Z,7.20
2019-05-16T04:34:22.531Z,7.20
2019-05-16T04:36:53.383Z,7.10
2019-05-16T04:39:24.319Z,7.20
2019-05-16T04:41:55.258Z,7.20
2019-05-16T04:44:26.093Z,7.20
2019-05-16T04:46:56.938Z,7.20
2019-05-16T04:49:31.920Z,7.40
2019-05-16T04:52:01.728Z,7.50
2019-05-16T04:54:33.603Z,7.40
2019-05-16T04:57:04.381Z,7.40
2019-05-16T04:59:35.125Z,7.50
2019-05-16T05:02:06.954Z,7.40
2019-05-16T05:04:41.073Z,7.40
2019-05-16T05:07:11.134Z,7.40
2019-05-16T05:09:43.703Z,7.50
2019-05-16T05:12:14.758Z,7.40
2019-05-16T05:14:45.487Z,7.60
2019-05-16T05:17:16.313Z,7.60
2019-05-16T05:19:47.103Z,7.50
2019-05-16T05:22:19.844Z,7.40
2019-05-16T05:24:50.765Z,7.60
2019-05-16T05:27:23.401Z,7.60
2019-05-16T05:29:54.236Z,7.60
2019-05-16T05:32:25.966Z,7.70
2019-05-16T05:34:59.866Z,7.70
2019-05-16T05:37:30.936Z,7.80
2019-05-16T05:40:02.798Z,7.80
2019-05-16T05:42:33.627Z,7.90
2019-05-16T05:45:05.796Z,7.80
2019-05-16T05:47:39.977Z,7.90
2019-05-16T05:50:11.101Z,7.90
2019-05-16T05:52:42.241Z,8.00
2019-05-16T05:55:14.463Z,8.00
2019-05-16T05:57:45.410Z,8.00
2019-05-16T06:00:16.523Z,7.90
2019-05-16T06:02:47.440Z,8.00
2019-05-16T06:05:20.154Z,8.00
2019-05-16T06:07:51.308Z,8.00
2019-05-16T06:10:22.345Z,8.10
2019-05-16T06:12:53.357Z,8.10
2019-05-16T06:15:25.248Z,8.30
2019-05-16T06:17:56.112Z,8.30
2019-05-16T06:20:26.891Z,8.30
2019-05-16T06:22:59.866Z,8.30
2019-05-16T06:25:31.776Z,8.30
2019-05-16T06:28:02.801Z,8.20
2019-05-16T06:30:34.727Z,8.30
2019-05-16T06:33:05.572Z,8.40
2019-05-16T06:35:36.435Z,8.30
2019-05-16T06:38:09.799Z,8.30
2019-05-16T06:40:40.808Z,8.30
2019-05-16T06:43:12.569Z,8.30
2019-05-16T06:45:46.500Z,8.40
2019-05-16T06:48:17.365Z,8.40
2019-05-16T06:50:51.119Z,8.30
2019-05-16T06:53:21.158Z,8.30
2019-05-16T06:55:55.913Z,8.40
2019-05-16T06:58:26.906Z,8.40
2019-05-16T07:01:00.477Z,8.60
2019-05-16T07:03:30.838Z,8.60
2019-05-16T07:06:03.370Z,8.80
2019-05-16T07:08:34.249Z,8.80
2019-05-16T07:11:05.229Z,8.80
2019-05-16T07:13:36.050Z,8.80
2019-05-16T07:16:09.721Z,8.90
2019-05-16T07:18:40.410Z,8.80
2019-05-16T07:21:11.155Z,8.90
2019-05-16T07:23:41.964Z,8.80
2019-05-16T07:26:13.892Z,8.70
2019-05-16T07:28:44.595Z,8.80
2019-05-16T07:31:18.762Z,8.90
2019-05-16T07:33:50.066Z,8.70
2019-05-16T07:36:21.680Z,8.70
2019-05-16T07:38:52.711Z,8.80
2019-05-16T07:41:23.547Z,8.90
2019-05-16T07:43:54.378Z,9.00
2019-05-16T07:46:26.553Z,9.20
2019-05-16T07:49:00.911Z,9.30
2019-05-16T07:51:31.034Z,9.30
2019-05-16T07:54:02.238Z,9.30
2019-05-16T07:56:33.064Z,9.30
2019-05-16T07:59:03.844Z,9.20
2019-05-16T08:01:34.937Z,9.10
2019-05-16T08:04:06.097Z,9.20
2019-05-16T08:06:40.889Z,9.20
2019-05-16T08:09:12.685Z,9.20
2019-05-16T08:11:43.060Z,9.20
2019-05-16T08:14:13.944Z,9.10
2019-05-16T08:16:46.606Z,9.20
2019-05-16T08:19:19.723Z,9.10
2019-05-16T08:21:50.608Z,9.20
2019-05-16T08:24:21.677Z,9.30
2019-05-16T08:26:53.559Z,9.20
2019-05-16T08:29:24.498Z,9.10
2019-05-16T08:31:55.368Z,9.10
2019-05-16T08:34:26.241Z,9.10
2019-05-16T08:37:00.968Z,9.00
2019-05-16T08:39:31.209Z,9.10
2019-05-16T08:44:35.011Z,9.20
2019-05-16T08:47:07.086Z,9.30
2019-05-16T08:49:37.936Z,9.30
2019-05-16T08:50:09.653Z,9.20
2019-05-16T08:52:11.619Z,9.40
2019-05-16T08:54:44.188Z,9.50
2019-05-16T08:59:52.355Z,9.60
2019-05-16T09:02:22.915Z,9.60
2019-05-16T09:04:53.978Z,9.60
2019-05-16T09:07:24.998Z,9.60
2019-05-16T09:09:59.800Z,9.60
2019-05-16T09:10:35.524Z,9.50
2019-05-16T09:12:28.359Z,9.60
2019-05-16T09:14:59.575Z,9.60
2019-05-16T09:17:30.490Z,9.60
2019-05-16T09:20:02.268Z,9.80
2019-05-16T09:22:33.104Z,9.70
2019-05-16T09:25:04.024Z,10.00
2019-05-16T09:27:34.791Z,10.00
2019-05-16T09:30:07.235Z,10.10
2019-05-16T09:32:42.444Z,10.10
2019-05-16T09:35:11.247Z,10.20
2019-05-16T09:37:43.149Z,10.20
2019-05-16T09:40:17.257Z,10.10
2019-05-16T09:42:48.933Z,10.10
2019-05-16T09:45:20.150Z,9.90
2019-05-16T09:47:51.071Z,9.90
2019-05-16T09:50:22.313Z,10.00
2019-05-16T09:52:53.235Z,9.90
2019-05-16T09:55:26.848Z,10.10
2019-05-16T09:57:58.563Z,10.20
2019-05-16T10:00:30.013Z,10.30
2019-05-16T10:03:00.880Z,10.20
2019-05-16T10:05:33.282Z,10.10
2019-05-16T10:08:06.898Z,10.10
2019-05-16T10:10:37.307Z,10.10
2019-05-16T10:13:08.112Z,10.10
2019-05-16T10:15:40.188Z,10.20
2019-05-16T10:18:11.043Z,10.20
2019-05-16T10:20:41.787Z,10.30
2019-05-16T10:23:14.576Z,10.10
2019-05-16T10:25:47.675Z,10.10
2019-05-16T10:28:20.187Z,10.10
2019-05-16T10:30:50.385Z,10.30
2019-05-16T10:33:22.425Z,10.00
2019-05-16T10:35:57.748Z,10.10
2019-05-16T10:38:28.811Z,10.10
2019-05-16T10:40:59.795Z,10.00
2019-05-16T10:43:30.535Z,10.10
2019-05-16T10:46:02.734Z,10.20
2019-05-16T10:48:34.472Z,10.30
2019-05-16T10:51:07.569Z,10.30
2019-05-16T10:54:00.492Z,10.20
2019-05-16T10:56:10.267Z,10.30
2019-05-16T10:59:04.001Z,10.30
2019-05-16T11:01:24.318Z,10.30
2019-05-16T11:03:48.971Z,10.30
2019-05-16T11:06:25.581Z,10.30
2019-05-16T11:08:50.939Z,10.30
2019-05-16T11:11:21.835Z,10.50
2019-05-16T11:13:55.536Z,10.40
2019-05-16T11:16:27.538Z,10.50
2019-05-16T11:19:13.798Z,10.70
2019-05-16T11:21:30.895Z,10.70
2019-05-16T11:24:02.601Z,10.80
2019-05-16T11:26:33.397Z,11.10
2019-05-16T11:29:04.241Z,11.00
2019-05-16T11:31:37.307Z,11.20
2019-05-16T11:34:08.260Z,11.40
2019-05-16T11:36:39.222Z,11.50
2019-05-16T11:39:10.031Z,11.80
2019-05-16T11:41:40.874Z,12.00
2019-05-16T11:44:11.807Z,12.20
2019-05-16T11:46:42.642Z,12.20
2019-05-16T11:49:13.449Z,11.90
2019-05-16T11:51:46.993Z,11.90
2019-05-16T11:54:18.183Z,12.00
2019-05-16T11:56:49.548Z,11.90
2019-05-16T11:59:21.113Z,12.20
2019-05-16T12:01:52.759Z,12.10
2019-05-16T12:04:24.157Z,12.00
2019-05-16T12:06:57.425Z,11.80
2019-05-16T12:09:33.506Z,11.60
2019-05-16T12:12:04.459Z,11.70
2019-05-16T12:14:36.700Z,11.60
2019-05-16T12:17:07.823Z,11.60
2019-05-16T12:19:43.931Z,11.50
2019-05-16T12:22:12.157Z,11.50
2019-05-16T12:24:43.160Z,11.50
2019-05-16T12:27:14.032Z,11.40
2019-05-16T12:29:50.257Z,11.40
2019-05-16T12:32:18.240Z,11.50
2019-05-16T12:34:48.925Z,11.60
2019-05-16T12:37:19.796Z,11.60
2019-05-16T12:39:50.945Z,11.50
2019-05-16T12:42:22.223Z,11.40
2019-05-16T12:44:56.358Z,11.50
2019-05-16T12:47:27.542Z,11.60
2019-05-16T12:49:58.823Z,11.80
2019-05-16T12:52:30.650Z,11.80
2019-05-16T12:55:01.915Z,12.00
2019-05-16T12:57:33.700Z,12.10
2019-05-16T13:00:07.383Z,12.10
2019-05-16T13:02:42.576Z,12.20
2019-05-16T13:05:17.583Z,12.30
2019-05-16T13:07:52.999Z,12.20
2019-05-16T13:10:27.114Z,12.20
2019-05-16T13:13:01.486Z,12.30
2019-05-16T13:15:32.854Z,12.50
2019-05-16T13:18:04.633Z,12.70
2019-05-16T13:20:41.007Z,12.60
2019-05-16T13:23:17.592Z,12.50
2019-05-16T13:25:53.509Z,12.60
2019-05-16T13:28:26.510Z,12.60
2019-05-16T13:31:01.129Z,12.70
2019-05-16T13:33:36.605Z,12.70
2019-05-16T13:36:11.411Z,12.60
2019-05-16T13:38:48.014Z,12.50
2019-05-16T13:41:23.130Z,12.50
2019-05-16T13:43:54.978Z,12.40
2019-05-16T13:46:32.483Z,12.40
2019-05-16T13:49:07.744Z,12.40
2019-05-16T13:51:47.257Z,12.50
2019-05-16T13:54:21.236Z,12.70
2019-05-16T13:56:58.082Z,12.70
2019-05-16T13:59:32.578Z,12.60
2019-05-16T14:02:08.935Z,12.50
2019-05-16T14:04:40.581Z,12.50
2019-05-16T14:07:12.441Z,12.30
2019-05-16T14:09:46.959Z,12.50
2019-05-16T14:12:19.238Z,12.40
2019-05-16T14:14:54.987Z,12.50
2019-05-16T14:17:27.711Z,12.60
2019-05-16T14:20:15.206Z,12.70
2019-05-16T14:22:53.599Z,12.70
2019-05-16T14:25:27.758Z,12.30
2019-05-16T14:28:00.803Z,12.40
2019-05-16T14:30:33.056Z,12.40
2019-05-16T14:33:13.264Z,12.40
2019-05-16T14:35:37.683Z,12.30
2019-05-16T14:38:08.813Z,12.10
2019-05-16T14:40:39.760Z,11.90
2019-05-16T14:43:10.616Z,12.00
2019-05-16T14:45:41.525Z,12.10
2019-05-16T14:48:12.319Z,12.10
2019-05-16T14:50:43.325Z,12.10
2019-05-16T14:53:14.114Z,12.10
2019-05-16T14:55:47.526Z,12.20
2019-05-16T14:58:17.585Z,12.20
2019-05-16T15:00:49.312Z,12.20
2019-05-16T15:03:20.473Z,12.30
2019-05-16T15:05:55.289Z,12.30
2019-05-16T15:08:24.672Z,12.40
2019-05-16T15:10:57.453Z,12.50
2019-05-16T15:13:28.390Z,12.40
2019-05-16T15:16:00.012Z,12.20
2019-05-16T15:18:30.910Z,12.20
2019-05-16T15:21:02.784Z,12.20
2019-05-16T15:23:34.428Z,12.20
2019-05-16T15:26:08.995Z,12.20
2019-05-16T15:28:39.271Z,12.00
2019-05-16T15:31:10.311Z,12.10
2019-05-16T15:33:41.122Z,12.00
2019-05-16T15:36:12.824Z,12.10
2019-05-16T15:38:47.228Z,12.00
2019-05-16T15:41:18.678Z,11.90
2019-05-16T15:43:50.187Z,11.80
2019-05-16T15:46:22.834Z,11.80
2019-05-16T15:48:57.050Z,11.90
2019-05-16T15:51:29.082Z,11.90
2019-05-16T15:54:01.808Z,11.90
2019-05-16T15:56:33.571Z,12.00
2019-05-16T15:59:06.950Z,11.90
2019-05-16T16:01:39.674Z,11.90
2019-05-16T16:04:12.598Z,11.90
2019-05-16T16:06:47.391Z,11.80
2019-05-16T16:09:28.777Z,11.90
2019-05-16T16:12:16.926Z,12.00
2019-05-16T16:14:50.895Z,12.00
2019-05-16T16:17:23.852Z,11.80
2019-05-16T16:19:58.463Z,11.80
2019-05-16T16:22:39.814Z,11.70
2019-05-16T16:25:12.161Z,11.80
2019-05-16T16:27:47.353Z,11.60
2019-05-16T16:30:27.848Z,11.60
2019-05-16T16:33:20.774Z,11.50
2019-05-16T16:35:48.035Z,11.60
2019-05-16T16:38:24.759Z,11.70
2019-05-16T16:40:59.809Z,11.60
2019-05-16T16:43:38.511Z,11.50
2019-05-16T16:46:16.790Z,11.50
2019-05-16T16:51:48.198Z,11.50
2019-05-16T16:54:27.597Z,11.50
2019-05-16T16:57:03.962Z,11.60
2019-05-16T16:59:37.904Z,11.50
2019-05-16T17:02:11.642Z,11.40
2019-05-16T17:04:51.168Z,11.50
2019-05-16T17:07:21.765Z,11.50
2019-05-16T17:09:56.383Z,11.50
2019-05-16T17:12:29.523Z,11.40
2019-05-16T17:15:08.145Z,11.40
2019-05-16T17:17:40.789Z,11.40
2019-05-16T17:20:13.906Z,11.40
2019-05-16T17:22:48.816Z,11.30
2019-05-16T17:25:22.468Z,11.30
2019-05-16T17:27:53.951Z,11.30
2019-05-16T17:30:26.186Z,11.30
2019-05-16T17:32:59.575Z,11.30
2019-05-16T17:35:32.407Z,11.30
2019-05-16T17:38:06.715Z,11.30
2019-05-16T17:40:41.493Z,11.20
2019-05-16T17:43:16.526Z,11.10
2019-05-16T17:45:57.494Z,11.10
2019-05-16T17:48:31.387Z,11.00
2019-05-16T17:51:04.375Z,11.00
2019-05-16T17:53:37.966Z,11.00
2019-05-16T17:56:11.938Z,10.90
2019-05-16T17:58:43.849Z,11.00
2019-05-16T18:01:17.101Z,10.90
2019-05-16T18:03:51.724Z,10.90
2019-05-16T18:06:27.369Z,10.90
2019-05-16T18:09:02.615Z,11.00
2019-05-16T18:11:41.108Z,10.90
2019-05-16T18:14:17.824Z,10.90
2019-05-16T18:17:01.910Z,10.90
2019-05-16T18:19:37.125Z,10.90
2019-05-16T18:22:10.500Z,10.90
2019-05-16T18:24:47.289Z,10.90
2019-05-16T18:27:27.330Z,10.80
2019-05-16T18:30:01.376Z,10.90
2019-05-16T18:32:37.365Z,10.80
2019-05-16T18:35:10.890Z,10.80
2019-05-16T18:37:47.506Z,10.80
2019-05-16T18:40:23.130Z,10.80
2019-05-16T18:42:58.623Z,10.80
2019-05-16T18:45:33.768Z,11.00
2019-05-16T18:48:10.464Z,11.00
2019-05-16T18:50:47.730Z,11.00
2019-05-16T18:53:22.622Z,11.00
2019-05-16T18:55:57.062Z,10.90
2019-05-16T18:58:32.102Z,10.90
2019-05-16T19:01:08.527Z,11.00
2019-05-16T19:03:49.063Z,10.90
2019-05-16T19:06:23.713Z,10.90
2019-05-16T19:09:02.492Z,10.90
2019-05-16T19:11:37.461Z,10.90
2019-05-16T19:14:17.468Z,10.90
2019-05-16T19:16:53.494Z,11.00
2019-05-16T19:19:28.324Z,10.90
2019-05-16T19:22:06.526Z,10.80
2019-05-16T19:24:42.597Z,10.80
2019-05-16T19:27:18.935Z,11.00
2019-05-16T19:29:52.279Z,10.90
2019-05-16T19:32:28.232Z,11.00
2019-05-16T19:35:06.932Z,10.90
2019-05-16T19:37:40.757Z,10.90
2019-05-16T19:40:17.151Z,10.90
2019-05-16T19:42:51.145Z,10.90
2019-05-16T19:45:26.426Z,10.80
2019-05-16T19:47:59.716Z,10.80
2019-05-16T19:50:32.838Z,10.70
2019-05-16T19:53:07.677Z,10.70
2019-05-16T19:55:39.869Z,10.70
2019-05-16T19:58:19.545Z,10.70
2019-05-16T20:00:58.820Z,10.80
2019-05-16T20:03:37.405Z,10.80
2019-05-16T20:06:16.689Z,11.00
2019-05-16T20:08:54.423Z,11.10
2019-05-16T20:11:42.648Z,11.10
2019-05-16T20:14:23.509Z,11.10
2019-05-16T20:16:57.376Z,11.10
2019-05-16T20:19:36.447Z,11.00
2019-05-16T20:22:07.829Z,11.00
2019-05-16T20:24:42.202Z,11.00
2019-05-16T20:27:19.598Z,10.90
2019-05-16T20:29:52.386Z,10.60
2019-05-16T20:32:27.624Z,10.30
2019-05-16T20:34:58.231Z,10.30
2019-05-16T20:37:31.291Z,10.40
2019-05-16T20:40:02.851Z,10.40
2019-05-16T20:42:40.547Z,10.40
2019-05-16T20:45:17.085Z,10.60
2019-05-16T20:48:07.302Z,10.60
2019-05-16T20:50:29.283Z,10.60
2019-05-16T20:53:07.203Z,10.50
2019-05-16T20:55:42.666Z,10.70
2019-05-16T20:58:24.153Z,10.70
2019-05-16T21:01:01.718Z,10.80
2019-05-16T21:03:37.622Z,10.80
2019-05-16T21:06:10.423Z,10.70
2019-05-16T21:08:53.354Z,10.70
2019-05-16T21:11:26.645Z,10.50
2019-05-16T21:13:58.918Z,10.70
2019-05-16T21:16:31.036Z,10.60
2019-05-16T21:19:06.895Z,10.60
2019-05-16T21:21:38.010Z,10.60
2019-05-16T21:24:15.971Z,10.70
2019-05-16T21:26:47.105Z,10.90
2019-05-16T21:29:21.578Z,11.00
2019-05-16T21:31:56.491Z,11.00
2019-05-16T21:34:28.948Z,11.00
2019-05-16T21:37:11.153Z,11.00
2019-05-16T21:39:33.883Z,11.00
2019-05-16T21:42:07.614Z,11.20
2019-05-16T21:44:39.024Z,11.10
2019-05-16T21:47:11.197Z,11.00
2019-05-16T21:49:43.162Z,11.00
2019-05-16T21:52:16.697Z,11.10
2019-05-16T21:54:53.414Z,11.10
2019-05-16T21:57:28.630Z,11.10
2019-05-16T22:00:10.378Z,11.00
2019-05-16T22:02:49.200Z,10.90
2019-05-16T22:05:23.374Z,10.90
2019-05-16T22:07:56.790Z,10.80
2019-05-16T22:10:29.817Z,10.70
2019-05-16T22:13:03.693Z,10.60
2019-05-16T22:15:37.976Z,10.70
2019-05-16T22:18:16.605Z,10.80
2019-05-16T22:20:50.676Z,10.80
2019-05-16T22:23:23.629Z,10.70
2019-05-16T22:25:57.405Z,10.70
2019-05-16T22:28:30.616Z,10.80
2019-05-16T22:31:01.944Z,10.70
2019-05-16T22:33:37.509Z,10.80
2019-05-16T22:36:12.153Z,10.80
2019-05-16T22:38:43.583Z,10.60
2019-05-16T22:41:17.084Z,10.50
2019-05-16T22:43:47.625Z,10.50
2019-05-16T22:46:18.710Z,10.60
2019-05-16T22:48:49.911Z,10.60
2019-05-16T22:51:21.202Z,10.60
2019-05-16T22:53:52.500Z,10.50
2019-05-16T22:56:26.096Z,10.60
2019-05-16T22:58:57.480Z,10.50
2019-05-16T23:01:28.792Z,10.60
2019-05-16T23:03:59.759Z,10.50
2019-05-16T23:06:30.463Z,10.50
2019-05-16T23:09:01.278Z,10.40
2019-05-16T23:11:36.320Z,10.40
2019-05-16T23:14:07.372Z,10.40
2019-05-16T23:16:38.396Z,10.40
2019-05-16T23:19:09.262Z,10.40
2019-05-16T23:21:40.134Z,10.40
2019-05-16T23:24:11.025Z,10.40
2019-05-16T23:26:41.961Z,10.40
2019-05-16T23:29:12.797Z,10.40
2019-05-16T23:31:47.010Z,10.40
2019-05-16T23:34:18.728Z,10.30
2019-05-16T23:36:49.472Z,10.40
2019-05-16T23:39:20.318Z,10.20
2019-05-16T23:41:52.660Z,10.30
2019-05-16T23:44:23.540Z,10.20
2019-05-16T23:46:56.273Z,10.00
2019-05-16T23:49:27.499Z,9.80
2019-05-16T23:51:59.632Z,9.70
2019-05-16T23:54:30.437Z,9.50
2019-05-16T23:57:01.306Z,9.40
2019-05-16T23:59:32.138Z,9.20
